Time;durP1;ratioP1;P1;durP2;ratioP2;P2;SDS_P1;SDS_P2;PMS_P1;PMS_P2;Temp;Humidity;BMP_temperature;BMP_pressure;BME280_temperature;BME280_humidity;BME280_pressure;Samples;Min_cycle;Max_cycle;Signal;HPM_P1;HPM_P2
2023/03/18 00:00:29;;;;;;;3.90;1.67;;;20.00;57.80;;;;;;5052007;28;20059;-62
2023/03/18 00:02:55;;;;;;;4.47;1.55;;;20.00;57.80;;;;;;5050997;28;20174;-63
2023/03/18 00:05:20;;;;;;;3.63;1.40;;;20.00;57.80;;;;;;5052349;28;20037;-63
2023/03/18 00:07:46;;;;;;;3.72;1.38;;;20.00;57.80;;;;;;5052486;28;20474;-62
2023/03/18 00:10:12;;;;;;;3.55;1.20;;;20.00;57.70;;;;;;5050943;28;20523;-62
2023/03/18 00:12:39;;;;;;;3.78;1.67;;;20.00;57.70;;;;;;5051654;28;20041;-62
2023/03/18 00:15:08;;;;;;;4.60;1.42;;;20.00;57.70;;;;;;5050978;28;20045;-63
2023/03/18 00:17:34;;;;;;;3.30;1.63;;;20.00;57.70;;;;;;5051530;28;20515;-62
2023/03/18 00:20:04;;;;;;;3.13;1.33;;;20.00;57.60;;;;;;5052046;28;20041;-63
2023/03/18 00:22:32;;;;;;;3.03;1.38;;;20.00;57.60;;;;;;5051544;28;20112;-62
2023/03/18 00:24:57;;;;;;;3.67;1.60;;;20.00;57.60;;;;;;5052321;28;20395;-62
2023/03/18 00:27:23;;;;;;;3.78;1.60;;;19.90;57.50;;;;;;5052010;28;20048;-62
2023/03/18 00:29:49;;;;;;;4.07;1.40;;;19.90;57.50;;;;;;5051183;28;20048;-63
2023/03/18 00:32:15;;;;;;;3.72;1.48;;;19.90;57.40;;;;;;5033220;28;20037;-62
2023/03/18 00:34:40;;;;;;;4.18;1.20;;;19.90;57.40;;;;;;5051816;28;20069;-62
2023/03/18 00:37:07;;;;;;;3.25;1.40;;;19.90;57.40;;;;;;5051111;28;20519;-62
2023/03/18 00:39:32;;;;;;;3.70;1.55;;;19.90;57.40;;;;;;5051608;28;20434;-62
2023/03/18 00:42:00;;;;;;;3.10;1.30;;;19.90;57.40;;;;;;5033766;28;20530;-62
2023/03/18 00:44:26;;;;;;;2.72;1.40;;;19.90;57.40;;;;;;5050883;28;20102;-62
2023/03/18 00:46:51;;;;;;;2.30;1.02;;;19.90;57.40;;;;;;5033630;28;20415;-62
2023/03/18 00:49:17;;;;;;;3.20;1.30;;;19.90;57.40;;;;;;5033751;28;20045;-62
2023/03/18 00:51:43;;;;;;;3.55;1.48;;;19.90;57.40;;;;;;5051271;28;20033;-62
2023/03/18 00:54:11;;;;;;;4.65;1.30;;;19.90;57.40;;;;;;5051713;28;20549;-62
2023/03/18 00:56:37;;;;;;;3.60;1.52;;;19.90;57.30;;;;;;5051058;28;20377;-62
2023/03/18 00:59:03;;;;;;;3.10;1.38;;;19.80;57.20;;;;;;5050935;28;20041;-62
2023/03/18 01:01:29;;;;;;;3.75;1.27;;;19.80;57.20;;;;;;5051720;28;20045;-62
2023/03/18 01:03:54;;;;;;;2.67;1.30;;;19.90;57.30;;;;;;5051397;28;20073;-62
2023/03/18 01:06:27;;;;;;;3.10;1.20;;;19.80;57.20;;;;;;5050384;28;20409;-62
2023/03/18 01:08:53;;;;;;;4.32;1.52;;;19.90;57.20;;;;;;5051529;28;20152;-62
2023/03/18 01:11:18;;;;;;;3.17;1.30;;;19.80;57.20;;;;;;5050431;28;20131;-62
2023/03/18 01:13:44;;;;;;;2.92;1.52;;;19.80;57.10;;;;;;5055519;28;20044;-62
2023/03/18 01:16:10;;;;;;;2.88;1.33;;;19.80;57.10;;;;;;5055294;28;20041;-62
2023/03/18 01:18:36;;;;;;;3.63;1.42;;;19.80;57.10;;;;;;5036415;28;20391;-62
2023/03/18 01:21:02;;;;;;;4.60;1.33;;;19.80;57.10;;;;;;5037488;28;20484;-63
2023/03/18 01:23:29;;;;;;;3.35;1.30;;;19.80;57.10;;;;;;5055470;28;20033;-62
2023/03/18 01:25:55;;;;;;;2.50;1.50;;;19.80;57.10;;;;;;5054527;28;20048;-62
2023/03/18 01:28:21;;;;;;;1.98;1.13;;;19.80;57.10;;;;;;5036958;28;20052;-62
2023/03/18 01:30:47;;;;;;;3.08;1.25;;;19.80;57.00;;;;;;5055339;28;20045;-62
2023/03/18 01:33:12;;;;;;;2.15;1.13;;;19.80;57.10;;;;;;5053670;28;20156;-62
2023/03/18 01:35:41;;;;;;;3.83;1.50;;;19.80;57.00;;;;;;5054782;28;20128;-62
2023/03/18 01:38:06;;;;;;;;;;;19.80;57.00;;;;;;5055151;28;20484;-62
2023/03/18 01:40:36;;;;;;;3.60;1.20;;;19.80;57.00;;;;;;5036144;28;19920;-62
2023/03/18 01:43:31;;;;;;;3.40;1.40;;;19.80;57.00;;;;;;5054626;28;20080;-62
2023/03/18 01:45:58;;;;;;;3.15;1.35;;;19.70;56.90;;;;;;5055109;28;20059;-62
2023/03/18 01:48:26;;;;;;;2.97;1.40;;;19.70;57.00;;;;;;5035674;28;20056;-62
2023/03/18 01:50:54;;;;;;;2.65;1.15;;;19.70;57.00;;;;;;5054933;28;20041;-62
2023/03/18 01:53:20;;;;;;;2.90;1.20;;;19.70;57.00;;;;;;5036365;28;20048;-62
2023/03/18 01:55:46;;;;;;;3.97;1.40;;;19.70;56.90;;;;;;5036474;28;20045;-62
2023/03/18 01:58:33;;;;;;;3.90;1.23;;;19.70;56.90;;;;;;5036551;28;20130;-62
2023/03/18 02:01:02;;;;;;;2.83;1.20;;;19.70;56.80;;;;;;5035866;28;20120;-63
2023/03/18 02:03:28;;;;;;;2.22;1.13;;;19.70;56.90;;;;;;5037673;28;20059;-63
2023/03/18 02:05:54;;;;;;;3.50;1.40;;;19.70;56.90;;;;;;5056555;28;20537;-62
2023/03/18 02:08:20;;;;;;;2.88;1.17;;;19.70;56.90;;;;;;5054792;28;20044;-62
2023/03/18 02:10:45;;;;;;;2.70;1.13;;;19.70;56.90;;;;;;5073920;28;20061;-62
2023/03/18 02:13:12;;;;;;;2.70;1.30;;;19.70;56.90;;;;;;5074110;28;20099;-66
2023/03/18 02:15:43;;;;;;;2.80;1.33;;;19.70;56.90;;;;;;5055816;28;20050;-63
2023/03/18 02:18:26;;;;;;;3.58;1.77;;;19.70;56.90;;;;;;5039679;28;20044;-63
2023/03/18 02:21:09;;;;;;;3.25;1.30;;;19.70;56.80;;;;;;5058546;28;20064;-62
2023/03/18 02:23:41;;;;;;;3.25;1.15;;;19.70;56.80;;;;;;5054869;28;20088;-62
2023/03/18 02:26:33;;;;;;;2.75;1.25;;;19.70;56.80;;;;;;5073889;28;20044;-62
2023/03/18 02:29:01;;;;;;;2.22;0.90;;;19.70;56.80;;;;;;5017579;28;20083;-63
2023/03/18 02:31:26;;;;;;;2.33;1.20;;;19.60;56.80;;;;;;5040045;28;20044;-63
2023/03/18 02:33:52;;;;;;;3.60;1.13;;;19.60;56.70;;;;;;5039601;28;20039;-61
2023/03/18 02:36:20;;;;;;;3.33;1.50;;;19.70;56.90;;;;;;5055145;28;20044;-63
2023/03/18 02:38:46;;;;;;;3.47;1.30;;;19.60;56.80;;;;;;5070066;28;20135;-62
2023/03/18 02:41:26;;;;;;;2.83;1.30;;;19.60;56.80;;;;;;5053367;28;20100;-62
2023/03/18 02:43:52;;;;;;;2.00;1.08;;;19.60;56.70;;;;;;5053034;28;20052;-62
2023/03/18 02:46:33;;;;;;;2.78;1.20;;;19.60;56.70;;;;;;5053045;28;20124;-62
2023/03/18 02:48:59;;;;;;;2.53;1.10;;;19.60;56.70;;;;;;5035636;28;20037;-63
2023/03/18 02:51:25;;;;;;;3.28;1.13;;;19.60;56.70;;;;;;5052909;28;20041;-62
2023/03/18 02:53:53;;;;;;;3.17;1.60;;;19.60;56.70;;;;;;5053561;28;20071;-62
2023/03/18 02:56:19;;;;;;;3.33;1.30;;;19.60;56.70;;;;;;5035690;28;20044;-61
2023/03/18 02:58:44;;;;;;;2.45;1.10;;;19.60;56.60;;;;;;5052820;28;20044;-62
2023/03/18 03:01:10;;;;;;;3.00;1.38;;;19.60;56.60;;;;;;5044043;28;20399;-62
2023/03/18 03:03:36;;;;;;;2.78;1.40;;;19.60;56.60;;;;;;5054977;28;20051;-62
2023/03/18 03:06:02;;;;;;;3.22;1.33;;;19.60;56.60;;;;;;5052585;28;20037;-62
2023/03/18 03:08:28;;;;;;;2.83;1.23;;;19.60;56.60;;;;;;5052794;28;20399;-62
2023/03/18 03:10:53;;;;;;;2.97;1.20;;;19.50;56.60;;;;;;5052579;28;20044;-62
2023/03/18 03:13:19;;;;;;;2.20;1.00;;;19.60;56.60;;;;;;5035147;28;20137;-62
2023/03/18 03:15:45;;;;;;;3.42;1.10;;;19.60;56.60;;;;;;5035347;28;20508;-62
2023/03/18 03:18:11;;;;;;;3.63;1.50;;;19.50;56.60;;;;;;5050624;28;20095;-62
2023/03/18 03:20:37;;;;;;;3.20;1.30;;;19.50;56.60;;;;;;5053244;28;20047;-62
2023/03/18 03:23:07;;;;;;;2.70;1.40;;;19.50;56.50;;;;;;5034796;28;20060;-62
2023/03/18 03:25:33;;;;;;;2.40;1.15;;;19.50;56.60;;;;;;5052355;28;20087;-63
2023/03/18 03:27:58;;;;;;;1.95;1.23;;;19.50;56.60;;;;;;5052767;28;20365;-62
2023/03/18 03:30:25;;;;;;;2.53;1.27;;;19.50;56.50;;;;;;5053075;28;20045;-62
2023/03/18 03:32:50;;;;;;;3.40;1.40;;;19.50;56.50;;;;;;5051617;28;20041;-61
2023/03/18 03:35:16;;;;;;;3.08;1.27;;;19.50;56.50;;;;;;5051657;28;20305;-62
2023/03/18 03:37:42;;;;;;;2.88;1.20;;;19.50;56.60;;;;;;5052735;28;20047;-62
2023/03/18 03:40:14;;;;;;;3.60;1.15;;;19.50;56.50;;;;;;5051719;28;20045;-62
2023/03/18 03:42:39;;;;;;;3.20;1.15;;;19.50;56.50;;;;;;5052660;28;20033;-62
2023/03/18 03:45:06;;;;;;;2.58;1.00;;;19.50;56.50;;;;;;5051691;28;20407;-64
2023/03/18 03:47:32;;;;;;;2.30;1.15;;;19.50;56.50;;;;;;5051484;28;20047;-63
2023/03/18 03:49:57;;;;;;;2.85;1.05;;;19.50;56.50;;;;;;5052158;28;20124;-63
2023/03/18 03:52:23;;;;;;;3.38;1.40;;;19.50;56.50;;;;;;5034751;28;20472;-63
2023/03/18 03:54:49;;;;;;;3.13;1.30;;;19.50;56.50;;;;;;5051942;28;20068;-63
2023/03/18 03:57:15;;;;;;;2.30;1.30;;;19.50;56.40;;;;;;5052236;28;20036;-63
2023/03/18 03:59:41;;;;;;;2.72;1.20;;;19.50;56.40;;;;;;5034517;28;20045;-62
2023/03/18 04:02:07;;;;;;;2.20;1.20;;;19.50;56.40;;;;;;5050803;28;20043;-62
2023/03/18 04:04:33;;;;;;;2.53;1.10;;;19.50;56.40;;;;;;5052095;28;20111;-62
2023/03/18 04:06:59;;;;;;;3.60;1.30;;;19.50;56.40;;;;;;5052057;28;20486;-62
2023/03/18 04:09:25;;;;;;;2.95;1.10;;;19.50;56.50;;;;;;5051456;28;20160;-62
2023/03/18 04:11:50;;;;;;;2.30;1.00;;;19.50;56.50;;;;;;5052333;28;20032;-62
2023/03/18 04:14:16;;;;;;;2.95;1.08;;;19.50;56.50;;;;;;5051412;28;20103;-62
2023/03/18 04:16:43;;;;;;;3.10;1.35;;;19.60;56.50;;;;;;5051895;28;20045;-62
2023/03/18 04:19:09;;;;;;;3.08;1.30;;;19.50;56.50;;;;;;5051868;28;20048;-62
2023/03/18 04:21:35;;;;;;;1.85;1.00;;;19.60;56.50;;;;;;5051487;28;20064;-62
2023/03/18 04:24:02;;;;;;;2.63;0.82;;;19.60;56.50;;;;;;5033922;28;20049;-62
2023/03/18 04:26:29;;;;;;;2.67;1.20;;;19.60;56.50;;;;;;5052175;28;20033;-62
2023/03/18 04:28:56;;;;;;;2.30;1.00;;;19.60;56.60;;;;;;5033364;28;20056;-62
2023/03/18 04:31:21;;;;;;;2.05;1.00;;;19.60;56.60;;;;;;5051526;28;20076;-62
2023/03/18 04:33:47;;;;;;;2.42;1.00;;;19.60;56.60;;;;;;5034300;28;20133;-62
2023/03/18 04:36:13;;;;;;;2.42;1.17;;;19.60;56.60;;;;;;5050881;28;20373;-62
2023/03/18 04:38:38;;;;;;;2.08;1.00;;;19.60;56.50;;;;;;5051879;28;20147;-62
2023/03/18 04:41:05;;;;;;;2.90;1.20;;;19.70;56.60;;;;;;5033859;28;20073;-62
2023/03/18 04:43:31;;;;;;;4.15;1.20;;;19.70;56.50;;;;;;5051113;28;20049;-62
2023/03/18 04:45:56;;;;;;;1.75;0.90;;;19.70;56.50;;;;;;5052335;28;20079;-62
2023/03/18 04:48:22;;;;;;;2.10;1.20;;;19.70;56.50;;;;;;5055751;28;20099;-62
2023/03/18 04:50:48;;;;;;;1.95;0.90;;;19.70;56.40;;;;;;5055386;28;20045;-62
2023/03/18 04:53:14;;;;;;;2.65;1.00;;;19.70;56.40;;;;;;5055618;28;20126;-62
2023/03/18 04:55:40;;;;;;;2.10;1.17;;;19.70;56.50;;;;;;5055895;28;20052;-62
2023/03/18 04:58:05;;;;;;;2.70;1.00;;;19.70;56.40;;;;;;5054537;28;20049;-62
2023/03/18 05:00:31;;;;;;;2.03;1.00;;;19.70;56.40;;;;;;5058779;28;20496;-62
2023/03/18 05:02:56;;;;;;;2.92;1.10;;;19.80;56.40;;;;;;5068278;28;20094;-62
2023/03/18 05:05:22;;;;;;;2.22;1.10;;;19.80;56.40;;;;;;5074414;28;20041;-62
2023/03/18 05:07:48;;;;;;;2.55;1.20;;;19.80;56.40;;;;;;5074940;28;20076;-62
2023/03/18 05:10:13;;;;;;;1.77;0.93;;;19.80;56.40;;;;;;5075055;28;20134;-62
2023/03/18 05:12:39;;;;;;;2.30;1.00;;;19.80;56.40;;;;;;5074550;28;20052;-62
2023/03/18 05:15:05;;;;;;;3.03;1.10;;;19.80;56.40;;;;;;5075144;28;20048;-62
2023/03/18 05:17:31;;;;;;;1.75;0.95;;;19.90;56.40;;;;;;5072392;28;20444;-62
2023/03/18 05:19:56;;;;;;;1.85;0.95;;;19.80;56.30;;;;;;5055431;28;20128;-62
2023/03/18 05:22:22;;;;;;;3.10;1.00;;;19.90;56.40;;;;;;5071196;28;20115;-62
2023/03/18 05:24:48;;;;;;;2.60;1.00;;;19.90;56.40;;;;;;5056125;28;20045;-62
2023/03/18 05:27:15;;;;;;;2.10;1.08;;;19.90;56.30;;;;;;5073598;28;20133;-61
2023/03/18 05:29:41;;;;;;;2.25;1.25;;;19.90;56.40;;;;;;5056370;28;20053;-62
2023/03/18 05:32:07;;;;;;;1.83;0.75;;;19.90;56.30;;;;;;5073616;28;20055;-61
2023/03/18 05:34:33;;;;;;;2.00;1.05;;;19.90;56.40;;;;;;5074764;28;20044;-62
2023/03/18 05:36:59;;;;;;;2.42;0.90;;;19.90;56.30;;;;;;5074857;28;20471;-62
2023/03/18 05:39:25;;;;;;;2.88;0.95;;;19.90;56.30;;;;;;5074038;28;20048;-62
2023/03/18 05:41:51;;;;;;;1.90;0.85;;;20.00;56.40;;;;;;5074714;28;20144;-62
2023/03/18 05:44:16;;;;;;;1.98;0.93;;;19.90;56.30;;;;;;5074351;28;20058;-62
2023/03/18 05:46:42;;;;;;;2.83;1.17;;;19.90;56.30;;;;;;5073480;28;20115;-62
2023/03/18 05:49:08;;;;;;;2.55;0.93;;;20.00;56.40;;;;;;5074437;28;20044;-62
2023/03/18 05:51:33;;;;;;;2.10;1.00;;;20.00;56.30;;;;;;5074926;28;20060;-62
2023/03/18 05:53:59;;;;;;;2.03;0.80;;;20.00;56.30;;;;;;5073132;28;20064;-62
2023/03/18 05:56:25;;;;;;;2.20;0.90;;;20.00;56.30;;;;;;5074881;28;20032;-62
2023/03/18 05:58:50;;;;;;;2.22;1.00;;;20.00;56.30;;;;;;5055585;28;20044;-62
2023/03/18 06:01:16;;;;;;;2.15;1.13;;;20.00;56.20;;;;;;5073350;28;20079;-61
2023/03/18 06:03:42;;;;;;;1.80;0.90;;;20.00;56.20;;;;;;5074102;28;20044;-62
2023/03/18 06:06:07;;;;;;;2.58;1.27;;;20.00;56.30;;;;;;5074361;28;20036;-63
2023/03/18 06:08:33;;;;;;;1.92;1.00;;;20.00;56.20;;;;;;5073597;28;20115;-62
2023/03/18 06:10:59;;;;;;;2.38;1.08;;;20.00;56.20;;;;;;5056203;28;20040;-62
2023/03/18 06:13:25;;;;;;;2.40;1.02;;;20.00;56.20;;;;;;5073813;28;20036;-62
2023/03/18 06:15:57;;;;;;;1.95;0.98;;;20.00;56.20;;;;;;5073588;28;20135;-62
2023/03/18 06:18:23;;;;;;;1.77;1.00;;;20.00;56.10;;;;;;5073274;28;20395;-62
2023/03/18 06:20:48;;;;;;;3.10;1.00;;;20.10;56.20;;;;;;5073329;28;20032;-62
2023/03/18 06:23:14;;;;;;;2.53;1.23;;;20.00;56.20;;;;;;5073628;28;20387;-62
2023/03/18 06:25:40;;;;;;;1.40;0.93;;;20.00;56.20;;;;;;5074449;28;20150;-62
2023/03/18 06:28:06;;;;;;;1.88;1.10;;;20.10;56.30;;;;;;5072761;28;20076;-63
2023/03/18 06:30:32;;;;;;;1.92;0.85;;;20.10;56.30;;;;;;5073792;28;20040;-62
2023/03/18 06:32:58;;;;;;;2.70;0.93;;;20.10;56.20;;;;;;5072541;28;20403;-62
2023/03/18 06:35:26;;;;;;;2.25;0.90;;;20.10;56.20;;;;;;5073343;28;20033;-62
2023/03/18 06:37:52;;;;;;;2.97;1.00;;;20.10;56.10;;;;;;5056118;28;20543;-62
2023/03/18 06:40:18;;;;;;;3.25;0.95;;;20.10;56.20;;;;;;5055670;28;20052;-62
2023/03/18 06:42:44;;;;;;;2.47;1.02;;;20.10;56.10;;;;;;5073169;28;20479;-62
2023/03/18 06:45:10;;;;;;;1.90;1.00;;;20.10;56.20;;;;;;5073250;28;20075;-61
2023/03/18 06:47:36;;;;;;;3.28;1.17;;;20.10;56.10;;;;;;5073482;28;20055;-61
2023/03/18 06:50:01;;;;;;;6.18;1.10;;;20.10;56.10;;;;;;5072251;28;20041;-61
2023/03/18 06:52:27;;;;;;;2.42;1.00;;;20.10;56.10;;;;;;5055835;28;20127;-60
2023/03/18 06:54:53;;;;;;;2.30;1.00;;;20.10;56.10;;;;;;5072984;28;20127;-60
2023/03/18 06:57:19;;;;;;;2.85;0.90;;;20.10;56.10;;;;;;5054564;28;20126;-59
2023/03/18 06:59:45;;;;;;;2.72;0.88;;;20.10;56.10;;;;;;5073292;28;20133;-60
2023/03/18 07:02:11;;;;;;;5.60;0.98;;;20.10;56.10;;;;;;5054953;28;20059;-62
2023/03/18 07:04:37;;;;;;;6.07;0.90;;;20.10;56.20;;;;;;5072484;28;20045;-62
2023/03/18 07:07:03;;;;;;;2.83;1.08;;;20.10;56.20;;;;;;5055121;28;20041;-62
2023/03/18 07:09:30;;;;;;;3.63;1.10;;;20.20;56.20;;;;;;5071790;28;20450;-61
2023/03/18 07:11:55;;;;;;;4.50;1.10;;;20.20;56.20;;;;;;5072236;28;20067;-61
2023/03/18 07:14:21;;;;;;;3.45;0.90;;;20.20;56.30;;;;;;5054809;28;20058;-61
2023/03/18 07:16:47;;;;;;;4.90;1.25;;;20.20;56.30;;;;;;5054739;28;20037;-61
2023/03/18 07:19:14;;;;;;;2.75;1.17;;;20.20;56.40;;;;;;5071432;28;20067;-62
2023/03/18 07:21:41;;;;;;;3.80;1.02;;;20.20;56.40;;;;;;5073235;28;20080;-62
2023/03/18 07:24:07;;;;;;;4.47;1.10;;;20.20;56.50;;;;;;5071662;28;20483;-62
2023/03/18 07:26:33;;;;;;;3.92;1.20;;;20.20;56.50;;;;;;5072724;28;20055;-62
2023/03/18 07:28:58;;;;;;;4.47;1.10;;;20.20;56.60;;;;;;5069215;28;20407;-63
2023/03/18 07:31:24;;;;;;;4.75;1.30;;;20.20;56.70;;;;;;5061347;28;20057;-62
2023/03/18 07:33:50;;;;;;;6.30;1.48;;;20.20;56.80;;;;;;5066103;28;20048;-62
2023/03/18 07:36:16;;;;;;;4.38;1.30;;;20.20;57.00;;;;;;5054076;28;20036;-62
2023/03/18 07:38:41;;;;;;;3.55;1.23;;;20.30;57.20;;;;;;5071497;28;20116;-62
2023/03/18 07:41:07;;;;;;;6.28;1.20;;;20.30;57.30;;;;;;5054274;28;20052;-63
2023/03/18 07:43:32;;;;;;;4.60;0.98;;;20.30;57.40;;;;;;5054641;28;20037;-62
2023/03/18 07:45:58;;;;;;;3.95;1.38;;;20.30;57.50;;;;;;5071765;28;20559;-62
2023/03/18 07:48:24;;;;;;;2.55;1.05;;;20.30;57.50;;;;;;5071911;28;20066;-62
2023/03/18 07:50:49;;;;;;;2.85;1.35;;;20.30;57.60;;;;;;5051765;28;20041;-62
2023/03/18 07:53:15;;;;;;;3.45;1.13;;;20.30;57.70;;;;;;5033748;28;20508;-62
2023/03/18 07:55:41;;;;;;;4.53;1.02;;;20.30;57.60;;;;;;5052340;28;20041;-61
2023/03/18 07:58:09;;;;;;;4.07;1.20;;;20.30;57.70;;;;;;5052460;28;20049;-63
2023/03/18 08:00:35;;;;;;;2.88;1.20;;;20.30;57.70;;;;;;5051746;28;20036;-63
2023/03/18 08:03:01;;;;;;;5.25;1.25;;;20.40;57.80;;;;;;5051398;28;20174;-63
2023/03/18 08:05:26;;;;;;;2.78;1.27;;;20.30;57.70;;;;;;5052252;28;20463;-62
2023/03/18 08:07:52;;;;;;;8.30;2.35;;;20.30;57.80;;;;;;5033600;28;20041;-62
2023/03/18 08:10:18;;;;;;;4.97;1.08;;;20.40;57.80;;;;;;5065222;28;20060;-62
2023/03/18 08:12:43;;;;;;;3.55;1.23;;;20.40;57.90;;;;;;5072388;28;20036;-61
2023/03/18 08:15:10;;;;;;;3.83;1.23;;;20.40;57.90;;;;;;5052950;28;20048;-61
2023/03/18 08:17:36;;;;;;;7.30;1.30;;;20.40;57.90;;;;;;5071967;28;20040;-62
2023/03/18 08:20:03;;;;;;;4.82;1.40;;;20.40;57.90;;;;;;5071848;28;20471;-63
2023/03/18 08:22:29;;;;;;;2.83;1.30;;;20.40;57.90;;;;;;5065778;28;20039;-63
2023/03/18 08:24:56;;;;;;;3.33;1.40;;;20.40;58.00;;;;;;5060441;28;20037;-62
2023/03/18 08:27:22;;;;;;;4.78;1.58;;;20.40;58.00;;;;;;5043063;28;20044;-63
2023/03/18 08:29:48;;;;;;;3.97;1.40;;;20.40;58.00;;;;;;5069189;28;20098;-62
2023/03/18 08:32:15;;;;;;;4.00;1.55;;;20.40;58.10;;;;;;5071843;28;20052;-61
2023/03/18 08:34:41;;;;;;;7.53;1.60;;;20.40;58.00;;;;;;5052884;28;20540;-62
2023/03/18 08:37:07;;;;;;;7.22;1.55;;;20.40;58.10;;;;;;5071349;28;20070;-61
2023/03/18 08:39:32;;;;;;;3.95;1.60;;;20.40;58.10;;;;;;5064578;28;20404;-62
2023/03/18 08:41:58;;;;;;;4.78;1.95;;;20.40;58.20;;;;;;5050910;28;20094;-62
2023/03/18 08:44:25;;;;;;;2.55;1.45;;;20.40;58.10;;;;;;5052178;28;20051;-62
2023/03/18 08:46:50;;;;;;;3.65;1.48;;;20.40;58.10;;;;;;5051707;28;20064;-62
2023/03/18 08:49:16;;;;;;;4.35;1.55;;;20.40;58.10;;;;;;5050936;28;20755;-62
2023/03/18 08:51:42;;;;;;;3.40;1.30;;;20.40;58.20;;;;;;5051877;28;20073;-61
2023/03/18 08:54:07;;;;;;;5.15;1.60;;;20.40;58.20;;;;;;5051527;28;20044;-61
2023/03/18 08:56:33;;;;;;;3.83;1.55;;;20.40;58.20;;;;;;5033364;28;20033;-61
2023/03/18 08:58:58;;;;;;;3.42;1.30;;;20.40;58.20;;;;;;5051744;28;20525;-61
2023/03/18 09:01:24;;;;;;;4.38;1.80;;;20.40;58.20;;;;;;5051783;28;20549;-61
2023/03/18 09:03:50;;;;;;;4.10;1.27;;;20.40;58.20;;;;;;5050864;28;20507;-61
2023/03/18 09:06:16;;;;;;;4.72;1.50;;;20.40;58.30;;;;;;5050900;28;20610;-61
2023/03/18 09:08:42;;;;;;;6.38;1.60;;;20.50;58.40;;;;;;5051326;28;20052;-62
2023/03/18 09:11:08;;;;;;;3.80;1.60;;;20.50;58.40;;;;;;5050931;28;20056;-62
2023/03/18 09:13:34;;;;;;;6.05;1.63;;;20.50;58.50;;;;;;5051758;28;20033;-62
2023/03/18 09:15:59;;;;;;;3.53;1.30;;;20.50;58.40;;;;;;5051592;28;20496;-62
2023/03/18 09:18:25;;;;;;;6.00;1.65;;;20.50;58.40;;;;;;5033359;28;20450;-62
2023/03/18 09:20:51;;;;;;;7.88;1.65;;;20.50;58.30;;;;;;5051603;28;20037;-62
2023/03/18 09:23:17;;;;;;;5.03;1.67;;;20.60;58.40;;;;;;5033511;28;20264;-62
2023/03/18 09:25:44;;;;;;;6.60;2.03;;;20.60;58.40;;;;;;5060898;28;20037;-62
2023/03/18 09:28:09;;;;;;;4.20;1.60;;;20.60;58.30;;;;;;5051415;28;20041;-63
2023/03/18 09:30:35;;;;;;;3.70;1.65;;;20.60;58.40;;;;;;5034086;28;20045;-63
2023/03/18 09:33:01;;;;;;;4.90;1.63;;;20.60;58.50;;;;;;5064408;28;20047;-62
2023/03/18 09:35:29;;;;;;;4.55;1.60;;;20.60;58.60;;;;;;5061208;28;20055;-63
2023/03/18 09:37:56;;;;;;;3.55;1.63;;;20.70;58.60;;;;;;5062640;28;20039;-62
2023/03/18 09:40:27;;;;;;;4.78;1.42;;;20.70;58.60;;;;;;5061837;28;20056;-63
2023/03/18 09:43:17;;;;;;;4.53;1.60;;;20.70;58.50;;;;;;5054942;28;20056;-63
2023/03/18 09:46:02;;;;;;;4.32;1.70;;;20.70;58.40;;;;;;5054471;28;20051;-63
2023/03/18 09:48:43;;;;;;;6.97;1.70;;;20.70;58.40;;;;;;5020764;28;20144;-62
2023/03/18 09:51:15;;;;;;;8.93;1.77;;;20.70;58.30;;;;;;5019906;28;20037;-62
2023/03/18 09:53:54;;;;;;;5.78;1.63;;;20.70;58.30;;;;;;5036181;28;20140;-63
2023/03/18 09:56:28;;;;;;;4.78;1.75;;;20.70;58.40;;;;;;5042150;28;20037;-63
2023/03/18 09:59:05;;;;;;;3.80;1.52;;;20.70;58.50;;;;;;5036341;28;20399;-62
2023/03/18 10:01:31;;;;;;;4.88;1.60;;;20.70;58.50;;;;;;5051812;28;20040;-62
2023/03/18 10:04:03;;;;;;;5.13;1.80;;;20.70;58.60;;;;;;5006261;28;20076;-63
2023/03/18 10:06:29;;;;;;;6.32;1.75;;;20.70;58.70;;;;;;5039698;28;20044;-63
2023/03/18 10:09:15;;;;;;;3.35;1.70;;;20.70;58.70;;;;;;5040053;28;20542;-61
2023/03/18 10:11:42;;;;;;;7.40;1.52;;;20.70;58.70;;;;;;5052704;28;20047;-61
2023/03/18 10:14:25;;;;;;;8.18;1.73;;;20.70;58.70;;;;;;5052809;28;20041;-62
2023/03/18 10:16:59;;;;;;;4.25;1.90;;;20.70;58.80;;;;;;5057085;28;20414;-61
2023/03/18 10:19:25;;;;;;;4.20;1.40;;;20.80;58.80;;;;;;5056376;28;20040;-62
2023/03/18 10:21:59;;;;;;;4.07;1.55;;;20.80;58.70;;;;;;5055987;28;20097;-63
2023/03/18 10:24:37;;;;;;;4.13;1.92;;;20.80;58.70;;;;;;5056115;28;20044;-62
2023/03/18 10:27:23;;;;;;;5.78;1.67;;;20.80;58.70;;;;;;5022660;28;20036;-61
2023/03/18 10:30:27;;;;;;;4.82;1.70;;;20.70;58.60;;;;;;5056885;28;20048;-62
2023/03/18 10:33:03;;;;;;;4.30;1.88;;;20.70;58.50;;;;;;5056228;28;20062;-63
2023/03/18 10:35:37;;;;;;;3.88;1.92;;;20.70;58.60;;;;;;5039252;28;20120;-64
2023/03/18 10:38:06;;;;;;;3.35;1.70;;;20.70;58.70;;;;;;5040101;28;20052;-62
2023/03/18 10:40:37;;;;;;;3.00;1.45;;;20.70;58.70;;;;;;5073543;28;20140;-63
2023/03/18 10:43:03;;;;;;;4.65;1.92;;;20.70;58.60;;;;;;5053177;28;20453;-62
2023/03/18 10:45:32;;;;;;;7.53;1.75;;;20.60;58.50;;;;;;5073256;28;20052;-62
2023/03/18 10:48:38;;;;;;;4.57;2.35;;;20.60;58.50;;;;;;5072882;28;20050;-64
2023/03/18 10:51:28;;;;;;;5.30;1.60;;;20.60;58.30;;;;;;5040384;28;20070;-63
2023/03/18 10:53:58;;;;;;;5.93;1.75;;;20.60;58.50;;;;;;5055820;28;20067;-63
2023/03/18 10:56:24;;;;;;;5.95;1.80;;;20.60;58.60;;;;;;5054868;28;20051;-63
2023/03/18 10:58:51;;;;;;;6.97;1.90;;;20.60;58.70;;;;;;5073834;28;20033;-62
2023/03/18 11:01:16;;;;;;;6.10;1.95;;;20.60;58.70;;;;;;5053538;28;20053;-62
2023/03/18 11:03:47;;;;;;;4.72;2.40;;;20.60;58.80;;;;;;5028655;28;20044;-62
2023/03/18 11:06:17;;;;;;;3.63;1.73;;;20.60;58.80;;;;;;5039369;28;20128;-62
2023/03/18 11:08:45;;;;;;;5.57;2.17;;;20.60;58.90;;;;;;5053275;28;20059;-62
2023/03/18 11:11:33;;;;;;;6.63;2.55;;;20.60;58.90;;;;;;5034898;28;20484;-62
2023/03/18 11:14:00;;;;;;;5.40;2.15;;;20.60;58.90;;;;;;5052685;28;20049;-62
2023/03/18 11:16:41;;;;;;;4.45;1.80;;;20.60;58.90;;;;;;5034488;28;20045;-62
2023/03/18 11:19:22;;;;;;;4.70;1.88;;;20.70;59.10;;;;;;5052657;28;20076;-62
2023/03/18 11:21:47;;;;;;;4.75;2.25;;;20.70;59.10;;;;;;5053421;28;20048;-62
2023/03/18 11:24:35;;;;;;;7.13;2.53;;;20.70;59.10;;;;;;5051966;28;20055;-63
2023/03/18 11:27:00;;;;;;;7.03;2.23;;;20.70;59.10;;;;;;5035064;28;20037;-62
2023/03/18 11:29:29;;;;;;;4.10;2.20;;;20.70;59.00;;;;;;5034985;28;20298;-62
2023/03/18 11:31:58;;;;;;;3.60;1.70;;;20.70;59.10;;;;;;5065671;28;20040;-62
2023/03/18 11:34:31;;;;;;;5.78;2.30;;;20.70;59.20;;;;;;5072832;28;20044;-62
2023/03/18 11:36:59;;;;;;;4.63;1.90;;;20.70;59.20;;;;;;5072739;28;20072;-62
2023/03/18 11:39:27;;;;;;;7.00;2.00;;;20.70;59.20;;;;;;5072166;28;20151;-62
2023/03/18 11:41:53;;;;;;;3.90;1.80;;;20.70;59.10;;;;;;5054991;28;20115;-62
2023/03/18 11:44:31;;;;;;;6.03;1.90;;;20.70;59.10;;;;;;5071617;28;20080;-62
2023/03/18 11:47:01;;;;;;;;;;;20.70;59.10;;;;;;5056019;28;20072;-62
2023/03/18 11:49:27;;;;;;;4.50;1.80;;;20.70;59.00;;;;;;5054830;28;19957;-61
2023/03/18 11:52:21;;;;;;;4.10;2.00;;;20.70;59.00;;;;;;5071392;28;20040;-61
2023/03/18 11:54:53;;;;;;;4.80;1.92;;;20.80;59.10;;;;;;5054771;28;20056;-61
2023/03/18 11:58:00;;;;;;;5.82;2.10;;;20.80;59.20;;;;;;5071798;28;20043;-61
2023/03/18 12:00:49;;;;;;;2.80;1.80;;;20.80;59.30;;;;;;5009075;28;20143;-62
2023/03/18 12:03:34;;;;;;;3.55;1.85;;;20.80;59.20;;;;;;5058855;28;20522;-63
2023/03/18 12:06:15;;;;;;;3.58;2.03;;;20.80;59.30;;;;;;5060592;28;20488;-64
2023/03/18 12:08:40;;;;;;;5.45;2.15;;;20.80;59.30;;;;;;5062227;28;20069;-63
2023/03/18 12:11:06;;;;;;;4.28;1.90;;;20.80;59.40;;;;;;5059923;28;20085;-64
2023/03/18 12:14:03;;;;;;;3.50;1.73;;;20.90;59.50;;;;;;5061982;28;20492;-64
2023/03/18 12:16:42;;;;;;;5.18;2.03;;;20.90;59.50;;;;;;5033176;28;20045;-63
2023/03/18 12:19:23;;;;;;;4.20;1.92;;;20.90;59.50;;;;;;5044582;28;20466;-63
2023/03/18 12:22:04;;;;;;;4.93;1.90;;;20.90;59.50;;;;;;5060212;28;20127;-63
2023/03/18 12:25:04;;;;;;;5.00;2.10;;;20.90;59.60;;;;;;5062756;28;20055;-63
2023/03/18 12:27:40;;;;;;;3.72;1.70;;;20.90;59.50;;;;;;5034789;28;20083;-63
2023/03/18 12:30:17;;;;;;;3.47;1.67;;;20.90;59.60;;;;;;5060468;28;20081;-63
2023/03/18 12:32:46;;;;;;;3.75;1.67;;;20.90;59.60;;;;;;5050746;28;20086;-63
2023/03/18 12:35:14;;;;;;;;;;;20.90;59.60;;;;;;5059655;28;20045;-64
2023/03/18 12:37:56;;;;;;;3.47;1.70;;;20.80;59.40;;;;;;5063331;28;19971;-64
2023/03/18 12:41:01;;;;;;;4.85;2.00;;;20.80;59.50;;;;;;5052193;28;20047;-64
2023/03/18 12:44:02;;;;;;;6.55;2.22;;;20.80;59.60;;;;;;4988739;28;20080;-64
2023/03/18 12:46:47;;;;;;;3.92;1.90;;;20.80;59.60;;;;;;4951026;28;20050;-64
2023/03/18 12:49:18;;;;;;;3.25;1.70;;;20.80;59.60;;;;;;5008801;28;20053;-65
2023/03/18 12:52:03;;;;;;;5.43;1.70;;;20.80;59.70;;;;;;5017655;28;20170;-64
2023/03/18 12:54:35;;;;;;;4.38;2.00;;;20.80;59.70;;;;;;5034334;28;20056;-64
2023/03/18 12:57:12;;;;;;;4.07;2.03;;;20.80;59.70;;;;;;5034334;28;20041;-63